createdAt,value
2023-01-02T00:09:29.970Z,1814.10306
2023-01-02T00:24:32.246Z,1211.47311
2023-01-02T00:39:34.564Z,999.29429
2023-01-02T00:54:36.859Z,958.67259
2023-01-02T01:09:39.089Z,1070.34846
2023-01-02T01:24:41.412Z,862.80538
2023-01-02T01:39:43.632Z,758.71363
2023-01-02T01:54:45.800Z,652.62581
2023-01-02T02:09:48.486Z,675.71103
2023-01-02T02:24:50.790Z,686.2075
2023-01-02T02:39:53.317Z,715.37824
2023-01-02T02:54:55.586Z,688.88277
2023-01-02T03:09:57.898Z,654.43866
2023-01-02T03:25:00.164Z,633.32775
2023-01-02T03:40:02.376Z,642.53978
2023-01-02T03:55:04.697Z,703.9778
2023-01-02T04:10:06.951Z,795.39117
2023-01-02T04:25:09.550Z,842.2624
2023-01-02T04:40:11.839Z,759.93605
2023-01-02T04:55:14.219Z,671.21912
2023-01-02T05:10:16.513Z,727.90288
2023-01-02T05:25:18.768Z,730.91385
2023-01-02T05:40:21.051Z,711.06007
2023-01-02T05:55:23.301Z,702.57824
2023-01-02T06:10:25.659Z,655.65283
2023-01-02T06:25:27.952Z,681.57544
2023-01-02T06:40:30.177Z,832.84335
2023-01-02T06:55:32.413Z,998.58907
2023-01-02T07:10:34.670Z,1245.5991
2023-01-02T07:25:42.454Z,1156.04626
2023-01-02T07:40:46.607Z,1151.34306
2023-01-02T07:55:48.857Z,1065.51255
2023-01-02T08:10:51.110Z,1029.84038
2023-01-02T08:25:57.514Z,1071.15872
2023-01-02T08:41:00.349Z,947.12232
2023-01-02T08:56:02.669Z,873.99679
2023-01-02T09:11:04.885Z,935.22852
2023-01-02T09:26:07.215Z,932.76253
2023-01-02T09:41:09.525Z,865.44392
2023-01-02T09:56:11.762Z,907.05178
2023-01-02T10:11:14.110Z,907.05178
2023-01-02T10:26:16.373Z,928.47819
2023-01-02T10:41:18.595Z,888.81959
2023-01-02T10:56:20.850Z,993.68028
2023-01-02T11:11:23.108Z,958.67259
2023-01-02T11:26:25.419Z,968.51522
2023-01-02T11:41:27.811Z,1053.61182
2023-01-02T11:56:30.167Z,1104.60628
2023-01-02T12:11:32.367Z,1111.54803
2023-01-02T12:26:34.585Z,1046.59813
2023-01-02T12:42:01.348Z,1222.991
2023-01-02T12:57:04.658Z,1364.51353
2023-01-02T13:12:07.212Z,1313.83523
2023-01-02T13:27:09.426Z,1684.5243
2023-01-02T13:42:11.865Z,1713.07556
2023-01-02T13:57:14.179Z,1809.46341
2023-01-02T14:12:16.459Z,1622.70692
2023-01-02T14:27:18.751Z,1377.79993
2023-01-02T14:42:22.707Z,1252.2129
2023-01-02T14:57:28.465Z,1278.22996
2023-01-02T15:12:30.726Z,1433.6378
2023-01-02T15:27:32.977Z,1371.12454
2023-01-02T15:42:35.273Z,1380.48832
2023-01-02T15:57:37.501Z,1329.88773
2023-01-02T16:12:39.727Z,1298.16565
2023-01-02T16:27:42.124Z,1545.60399
2023-01-02T16:42:44.396Z,1919.94622
2023-01-02T16:57:46.670Z,1775.40827
2023-01-02T17:12:48.912Z,2161.9562
2023-01-02T17:27:51.242Z,2350.49885
2023-01-02T17:42:53.482Z,2327.30314
2023-01-02T17:57:55.761Z,2321.57557
2023-01-02T18:12:58.084Z,2538.11711
2023-01-02T18:28:00.311Z,2625.23243
2023-01-02T18:43:02.695Z,2864.373
2023-01-02T18:58:05.072Z,3665.8036
2023-01-02T19:13:08.402Z,4262.0487
2023-01-02T19:28:10.714Z,3868.76331
2023-01-02T19:43:12.956Z,3711.4759
2023-01-02T19:58:15.224Z,3728.59074
2023-01-02T20:13:17.523Z,3694.51747
2023-01-02T20:28:19.757Z,4039.97195
2023-01-02T20:43:22.044Z,5136.11668
2023-01-02T20:58:24.381Z,4917.4636
2023-01-02T21:13:26.601Z,5071.68512
2023-01-02T21:28:28.921Z,4732.44199
2023-01-02T21:43:31.158Z,4377.41737
2023-01-02T21:58:33.394Z,4214.44578
2023-01-02T22:13:35.657Z,3381.12355
2023-01-02T22:28:37.978Z,3133.99827
2023-01-02T22:43:40.272Z,2584.4754
2023-01-02T22:58:42.679Z,2480.28097
2023-01-02T23:13:44.935Z,2568.05859
2023-01-02T23:29:07.658Z,2402.37742
2023-01-02T23:38:10.556Z,2171.91148
2023-01-02T23:53:12.799Z,1994.36273
